createdAt,value
2018-03-24T00:00:01.645Z,1.1
2018-03-24T00:01:04.303Z,1.2
2018-03-24T00:02:06.680Z,1.2
2018-03-24T00:03:09.066Z,1.4
2018-03-24T00:04:11.807Z,1.5
2018-03-24T00:05:14.179Z,1.5
2018-03-24T00:06:16.771Z,1.6
2018-03-24T00:07:19.452Z,1.2
2018-03-24T00:08:21.957Z,1.4
2018-03-24T00:09:24.611Z,1.4
2018-03-24T00:10:27.268Z,1.1
2018-03-24T00:11:30.000Z,1.1
2018-03-24T00:12:32.887Z,1.1
2018-03-24T00:13:35.276Z,1.2
2018-03-24T00:14:37.668Z,1.2
2018-03-24T00:15:40.174Z,1.1
2018-03-24T00:16:42.543Z,1.6
2018-03-24T00:17:44.919Z,1.5
2018-03-24T00:18:47.297Z,1.2
2018-03-24T00:19:49.989Z,1.4
2018-03-24T00:20:52.371Z,1.6
2018-03-24T00:21:54.741Z,1.2
2018-03-24T00:22:57.232Z,1.1
2018-03-24T00:23:59.941Z,1.2
2018-03-24T00:25:02.587Z,1.2
2018-03-24T00:26:04.962Z,1.6
2018-03-24T00:27:07.345Z,1.4
2018-03-24T00:28:09.799Z,1.4
2018-03-24T00:29:12.172Z,1.3
2018-03-24T00:30:14.834Z,1.2
2018-03-24T00:31:17.198Z,1.4
2018-03-24T00:32:19.865Z,1.1
2018-03-24T00:33:22.233Z,1.2
2018-03-24T00:34:24.598Z,1.2
2018-03-24T00:35:26.970Z,1.3
2018-03-24T00:36:29.355Z,1.5
2018-03-24T00:37:31.783Z,1.6
2018-03-24T00:38:34.149Z,1.1
2018-03-24T00:39:36.805Z,1.2
2018-03-24T00:40:39.188Z,1.1
2018-03-24T00:41:41.842Z,1.2
2018-03-24T00:42:44.303Z,1.4
2018-03-24T00:43:47.244Z,1.5
2018-03-24T00:44:49.621Z,1.6
2018-03-24T00:45:52.003Z,1.5
2018-03-24T00:46:54.661Z,1.7
2018-03-24T00:47:57.030Z,1.5
2018-03-24T00:48:59.403Z,1.3
2018-03-24T00:50:02.060Z,1.3
2018-03-24T00:51:04.444Z,1.2
2018-03-24T00:52:07.165Z,1.1
2018-03-24T00:53:09.532Z,1.2
2018-03-24T00:54:11.909Z,1.2
2018-03-24T00:55:14.282Z,1.5
2018-03-24T00:56:16.671Z,1.5
2018-03-24T00:57:19.063Z,1.3
2018-03-24T00:58:21.434Z,1.3
2018-03-24T00:59:23.805Z,1.2
2018-03-24T01:00:26.465Z,1.2
2018-03-24T01:01:28.907Z,1.6
2018-03-24T01:02:31.836Z,1.7
2018-03-24T01:03:34.210Z,1.5
2018-03-24T01:04:36.591Z,1.6
2018-03-24T01:05:38.965Z,1.5
2018-03-24T01:06:41.636Z,1.3
2018-03-24T01:07:44.288Z,1.2
2018-03-24T01:08:46.654Z,1.3
2018-03-24T01:09:49.031Z,1.1
2018-03-24T01:10:51.493Z,1.1
2018-03-24T01:11:53.875Z,1.2
2018-03-24T01:12:56.246Z,1.5
2018-03-24T01:13:58.619Z,1.5
2018-03-24T01:15:00.990Z,1.4
2018-03-24T01:16:03.364Z,1.3
2018-03-24T01:17:05.740Z,1.2
2018-03-24T01:18:08.117Z,1.2
2018-03-24T01:19:10.480Z,1.2
2018-03-24T01:20:13.202Z,1.9
2018-03-24T01:21:15.573Z,1.4
2018-03-24T01:22:18.239Z,1.5
2018-03-24T01:23:20.612Z,1.3
2018-03-24T01:24:23.368Z,1.3
2018-03-24T01:25:26.038Z,1.5
2018-03-24T01:26:28.409Z,1.3
2018-03-24T01:27:30.776Z,1.2
2018-03-24T01:28:33.150Z,1.2
2018-03-24T01:29:35.575Z,1.5
2018-03-24T01:30:37.951Z,1.6
2018-03-24T01:31:40.326Z,1.7
2018-03-24T01:32:42.993Z,1.6
2018-03-24T01:33:45.386Z,1.3
2018-03-24T01:34:48.343Z,1.3
2018-03-24T01:35:51.003Z,1.3
2018-03-24T01:36:53.374Z,1.3
2018-03-24T01:37:55.744Z,1.2
2018-03-24T01:38:58.413Z,1.2
2018-03-24T01:40:00.778Z,1.5
2018-03-24T01:41:03.439Z,1.5
2018-03-24T01:42:05.814Z,1.6
2018-03-24T01:43:08.194Z,1.5
2018-03-24T01:44:10.576Z,1.4
2018-03-24T01:45:12.941Z,1.2
2018-03-24T01:46:15.321Z,1.1
2018-03-24T01:47:17.695Z,1.2
2018-03-24T01:48:20.063Z,1.5
2018-03-24T01:49:22.438Z,1.6
2018-03-24T01:50:24.815Z,1.6
2018-03-24T01:51:27.474Z,1.3
2018-03-24T01:52:29.957Z,1.3
2018-03-24T01:53:32.323Z,1.2
2018-03-24T01:54:34.688Z,1.2
2018-03-24T01:55:37.066Z,1.2
2018-03-24T01:56:39.436Z,1.5
2018-03-24T01:57:42.107Z,1.6
2018-03-24T01:58:44.486Z,1.6
2018-03-24T01:59:46.852Z,1.5
2018-03-24T02:00:49.230Z,1.2
2018-03-24T02:01:51.610Z,1.2
2018-03-24T02:02:53.986Z,1.2
2018-03-24T02:03:56.637Z,1.5
2018-03-24T02:04:59.294Z,1.6
2018-03-24T02:06:01.666Z,1.8
2018-03-24T02:07:04.038Z,1.5
2018-03-24T02:08:06.405Z,1.5
2018-03-24T02:09:08.791Z,1.3
2018-03-24T02:10:11.160Z,1.2
2018-03-24T02:11:13.648Z,1.2
2018-03-24T02:12:16.308Z,1.5
2018-03-24T02:13:18.688Z,1.5
2018-03-24T02:14:21.062Z,1.5
2018-03-24T02:15:23.445Z,1.5
2018-03-24T02:16:26.204Z,1.3
2018-03-24T02:17:28.855Z,1.3
2018-03-24T02:18:31.520Z,1.4
2018-03-24T02:19:34.176Z,1.4
2018-03-24T02:20:36.834Z,1.2
2018-03-24T02:21:39.208Z,1.2
2018-03-24T02:22:41.579Z,1.2
2018-03-24T02:23:43.954Z,1.2
2018-03-24T02:24:46.321Z,1.6
2018-03-24T02:25:48.967Z,1.7
2018-03-24T02:26:51.343Z,1.6
2018-03-24T02:27:53.719Z,1.2
2018-03-24T02:28:56.086Z,1.2
2018-03-24T02:29:58.834Z,1.2
2018-03-24T02:31:01.194Z,1.2
2018-03-24T02:32:03.610Z,1.2
2018-03-24T02:33:05.954Z,1.5
2018-03-24T02:34:08.337Z,1.6
2018-03-24T02:35:10.705Z,1.3
2018-03-24T02:36:13.076Z,1.3
2018-03-24T02:37:15.461Z,1.2
2018-03-24T02:38:17.824Z,1.2
2018-03-24T02:39:20.248Z,1.2
2018-03-24T02:40:22.920Z,1.5
2018-03-24T02:41:25.285Z,1.5
2018-03-24T02:42:27.666Z,1.5
2018-03-24T02:43:30.037Z,1.5
2018-03-24T02:44:32.407Z,1.2
2018-03-24T02:45:34.782Z,1.2
2018-03-24T02:46:37.175Z,1.2
2018-03-24T02:47:39.818Z,1.5
2018-03-24T02:48:42.290Z,1.6
2018-03-24T02:49:44.647Z,1.6
2018-03-24T02:50:47.311Z,1.5
2018-03-24T02:51:49.684Z,1.4
2018-03-24T02:52:52.061Z,1.5
2018-03-24T02:53:54.432Z,1.2
2018-03-24T02:54:57.115Z,1.2
2018-03-24T02:56:00.052Z,1.2
2018-03-24T02:57:02.733Z,1.6
2018-03-24T02:58:05.185Z,1.2
2018-03-24T02:59:07.567Z,1.7
2018-03-24T03:00:09.937Z,1.6
2018-03-24T03:01:12.312Z,1.5
2018-03-24T03:02:14.798Z,1.4
2018-03-24T03:03:17.190Z,1.2
2018-03-24T03:04:20.190Z,1.4
2018-03-24T03:05:22.837Z,1.2
2018-03-24T03:06:25.499Z,1.2
2018-03-24T03:07:27.891Z,1.2
2018-03-24T03:08:30.266Z,1.2
2018-03-24T03:09:32.642Z,1.5
2018-03-24T03:10:35.299Z,1.5
2018-03-24T03:11:37.667Z,1.6
2018-03-24T03:12:40.336Z,1.5
2018-03-24T03:13:43.230Z,1.4
2018-03-24T03:14:45.605Z,1.4
2018-03-24T03:15:47.975Z,1.3
2018-03-24T03:16:50.350Z,1.2
2018-03-24T03:17:52.725Z,1.2
2018-03-24T03:18:55.107Z,1.2
2018-03-24T03:19:57.482Z,1.5
2018-03-24T03:20:59.847Z,1.5
2018-03-24T03:22:02.229Z,1.6
2018-03-24T03:23:04.607Z,1.4
2018-03-24T03:24:06.982Z,1.2
2018-03-24T03:25:09.368Z,1.1
2018-03-24T03:26:11.747Z,1.2
2018-03-24T03:27:14.396Z,1.6
2018-03-24T03:28:16.782Z,1.5
2018-03-24T03:29:19.154Z,1.5
2018-03-24T03:30:21.516Z,1.3
2018-03-24T03:31:24.181Z,1.3
2018-03-24T03:32:26.588Z,1.2
2018-03-24T03:33:28.975Z,1.2
2018-03-24T03:34:31.352Z,1.2
2018-03-24T03:35:33.815Z,1.7
2018-03-24T03:36:36.187Z,1.6
2018-03-24T03:37:38.575Z,1.4
2018-03-24T03:38:41.163Z,1.3
2018-03-24T03:39:43.584Z,1.4
2018-03-24T03:40:45.905Z,1.2
2018-03-24T03:41:48.276Z,1.2
2018-03-24T03:42:50.643Z,1.2
2018-03-24T03:43:53.023Z,1.5
2018-03-24T03:44:55.667Z,1.6
2018-03-24T03:45:58.038Z,1.5
2018-03-24T03:47:00.419Z,1.3
2018-03-24T03:48:02.788Z,1.2
2018-03-24T03:49:05.159Z,1.2
2018-03-24T03:50:07.533Z,1.2
2018-03-24T03:51:09.908Z,1.5
2018-03-24T03:52:12.349Z,1.6
2018-03-24T03:53:14.732Z,1.4
2018-03-24T03:54:17.097Z,1.4
2018-03-24T03:55:19.485Z,1.5
2018-03-24T03:56:21.862Z,1.3
2018-03-24T03:57:24.232Z,1.2
2018-03-24T03:58:26.640Z,1.7
2018-03-24T03:59:29.300Z,1.6
2018-03-24T04:00:31.963Z,1.6
2018-03-24T04:01:34.339Z,1.4
2018-03-24T04:02:36.717Z,1.4
2018-03-24T04:03:39.369Z,1.2
2018-03-24T04:04:41.743Z,1.2
2018-03-24T04:05:44.687Z,1.3
2018-03-24T04:06:47.060Z,1.2
2018-03-24T04:07:49.431Z,1.3
2018-03-24T04:08:51.810Z,1.6
2018-03-24T04:09:54.173Z,1.6
2018-03-24T04:10:56.558Z,1.4
2018-03-24T04:11:58.929Z,1.4
2018-03-24T04:13:01.299Z,1.4
2018-03-24T04:14:04.245Z,1.3
2018-03-24T04:15:06.622Z,1.2
2018-03-24T04:16:08.997Z,1.2
2018-03-24T04:17:11.373Z,1.5
2018-03-24T04:18:13.743Z,1.7
2018-03-24T04:19:16.119Z,1.3
2018-03-24T04:20:18.497Z,1.6
2018-03-24T04:21:20.872Z,1.2
2018-03-24T04:22:23.266Z,1.2
2018-03-24T04:23:25.644Z,1.2
2018-03-24T04:24:28.022Z,1.6
2018-03-24T04:25:30.408Z,1.6
2018-03-24T04:26:32.822Z,1.7
2018-03-24T04:27:35.147Z,1.5
2018-03-24T04:28:37.517Z,1.3
2018-03-24T04:29:39.893Z,1.2
2018-03-24T04:30:42.262Z,1.2
2018-03-24T04:31:44.685Z,1.3
2018-03-24T04:32:47.030Z,1.9
2018-03-24T04:33:49.405Z,1.5
2018-03-24T04:34:51.774Z,1.3
2018-03-24T04:35:54.149Z,1.3
2018-03-24T04:36:56.526Z,1.2
2018-03-24T04:37:58.893Z,1.3
2018-03-24T04:39:01.546Z,1.4
2018-03-24T04:40:04.201Z,1.8
2018-03-24T04:41:06.576Z,1.5
2018-03-24T04:42:08.956Z,1.5
2018-03-24T04:43:11.331Z,1.6
2018-03-24T04:44:13.983Z,1.3
2018-03-24T04:45:16.642Z,1.2
2018-03-24T04:46:19.012Z,1.2
2018-03-24T04:47:21.382Z,1.2
2018-03-24T04:48:23.761Z,1.2
2018-03-24T04:49:26.135Z,1.6
2018-03-24T04:50:28.506Z,1.5
2018-03-24T04:51:31.261Z,1.4
2018-03-24T04:52:33.933Z,1.4
2018-03-24T04:53:36.295Z,1.3
2018-03-24T04:54:38.724Z,1.1
2018-03-24T04:55:41.091Z,1.2
2018-03-24T04:56:43.470Z,1.2
2018-03-24T04:57:45.917Z,1.6
2018-03-24T04:58:48.574Z,1.7
2018-03-24T04:59:51.539Z,1.6
2018-03-24T05:00:54.197Z,1.6
2018-03-24T05:01:56.933Z,1.6
2018-03-24T05:02:59.579Z,1.4
2018-03-24T05:04:02.012Z,1.4
2018-03-24T05:05:04.327Z,1.5
2018-03-24T05:06:06.696Z,1.5
2018-03-24T05:07:09.068Z,1.2
2018-03-24T05:08:11.442Z,1.2
2018-03-24T05:09:14.399Z,1.5
2018-03-24T05:10:16.778Z,1.6
2018-03-24T05:11:19.148Z,1.4
2018-03-24T05:12:21.534Z,1.6
2018-03-24T05:13:23.903Z,1.5
2018-03-24T05:14:26.266Z,1.3
2018-03-24T05:15:28.703Z,1.3
2018-03-24T05:16:31.080Z,1.2
2018-03-24T05:17:33.445Z,1.6
2018-03-24T05:18:35.815Z,1.8
2018-03-24T05:19:38.479Z,1.6
2018-03-24T05:20:40.847Z,1.4
2018-03-24T05:21:43.422Z,1.3
2018-03-24T05:22:45.792Z,1.3
2018-03-24T05:23:48.164Z,1.2
2018-03-24T05:24:50.820Z,1.2
2018-03-24T05:25:53.204Z,1.3
2018-03-24T05:26:55.868Z,1.5
2018-03-24T05:27:58.241Z,1.5
2018-03-24T05:29:00.625Z,1.6
2018-03-24T05:30:03.585Z,1.5
2018-03-24T05:31:06.243Z,1.5
2018-03-24T05:32:08.614Z,1.2
2018-03-24T05:33:10.980Z,1.4
2018-03-24T05:34:13.349Z,1.3
2018-03-24T05:35:15.718Z,1.2
2018-03-24T05:36:18.364Z,1.2
2018-03-24T05:37:20.739Z,1.5
2018-03-24T05:38:23.112Z,1.6
2018-03-24T05:39:25.508Z,1.7
2018-03-24T05:40:28.446Z,1.4
2018-03-24T05:41:31.099Z,1.4
2018-03-24T05:42:33.747Z,1.3
2018-03-24T05:43:36.126Z,1.3
2018-03-24T05:44:38.771Z,1.1
2018-03-24T05:45:41.136Z,1.3
2018-03-24T05:46:43.506Z,1.2
2018-03-24T05:47:46.157Z,1.2
2018-03-24T05:48:48.545Z,1.6
2018-03-24T05:49:51.180Z,1.6
2018-03-24T05:50:53.545Z,1.5
2018-03-24T05:51:55.919Z,1.4
2018-03-24T05:52:58.303Z,1.2
2018-03-24T05:54:00.671Z,1.1
2018-03-24T05:55:03.337Z,1.2
2018-03-24T05:56:05.709Z,1.6
2018-03-24T05:57:08.081Z,1.6
2018-03-24T05:58:10.456Z,1.5
2018-03-24T05:59:12.828Z,1.5
2018-03-24T06:00:15.187Z,1.3
2018-03-24T06:01:17.562Z,1.2
2018-03-24T06:02:19.937Z,1.2
2018-03-24T06:03:22.308Z,1.2
2018-03-24T06:04:24.966Z,1.5
2018-03-24T06:05:27.347Z,1.6
2018-03-24T06:06:30.002Z,1.5
2018-03-24T06:07:32.364Z,1.4
2018-03-24T06:08:34.742Z,1.3
2018-03-24T06:09:37.114Z,1.3
2018-03-24T06:10:39.484Z,1.2
2018-03-24T06:11:41.850Z,1.2
2018-03-24T06:12:44.221Z,1.4
2018-03-24T06:13:46.588Z,1.5
2018-03-24T06:14:49.246Z,1.4
2018-03-24T06:15:51.908Z,1.3
2018-03-24T06:16:54.266Z,1.3
2018-03-24T06:17:56.937Z,1.2
2018-03-24T06:18:59.612Z,1.2
2018-03-24T06:20:01.989Z,1.2
2018-03-24T06:21:04.369Z,1.2
2018-03-24T06:22:07.136Z,1.2
2018-03-24T06:23:09.493Z,1.5
2018-03-24T06:24:11.867Z,1.6
2018-03-24T06:25:14.522Z,1.6
2018-03-24T06:26:17.183Z,1.5
2018-03-24T06:27:19.552Z,1.4
2018-03-24T06:28:22.491Z,1.4
2018-03-24T06:29:24.864Z,1.2
2018-03-24T06:30:27.242Z,1.2
2018-03-24T06:31:29.892Z,1.2
2018-03-24T06:32:32.267Z,1.2
2018-03-24T06:33:34.651Z,1.2
2018-03-24T06:34:37.016Z,1.6
2018-03-24T06:35:39.393Z,1.6
2018-03-24T06:36:41.773Z,1.4
2018-03-24T06:37:44.417Z,1.2
2018-03-24T06:38:46.803Z,1.2
2018-03-24T06:39:49.176Z,1.2
2018-03-24T06:40:51.537Z,1.2
2018-03-24T06:41:53.921Z,1.6
2018-03-24T06:42:56.299Z,1.7
2018-03-24T06:43:58.678Z,1.7
2018-03-24T06:45:01.049Z,1.3
2018-03-24T06:46:03.709Z,1.2
2018-03-24T06:47:06.085Z,1.2
2018-03-24T06:48:08.467Z,1.2
2018-03-24T06:49:10.845Z,1.4
2018-03-24T06:50:13.497Z,1.7
2018-03-24T06:51:15.873Z,1.5
2018-03-24T06:52:18.247Z,1.5
2018-03-24T06:53:21.183Z,1.2
2018-03-24T06:54:23.835Z,1.4
2018-03-24T06:55:26.274Z,1.3
2018-03-24T06:56:28.583Z,1.3
2018-03-24T06:57:31.258Z,1.2
2018-03-24T06:58:33.631Z,1.2
2018-03-24T06:59:36.005Z,1.7
2018-03-24T07:00:38.451Z,1.6
2018-03-24T07:01:40.765Z,1.5
2018-03-24T07:02:43.136Z,1.4
2018-03-24T07:03:45.510Z,1.2
2018-03-24T07:04:48.162Z,1.2
2018-03-24T07:05:50.541Z,1.1
2018-03-24T07:06:52.906Z,1.2
2018-03-24T07:07:55.291Z,1.5
2018-03-24T07:08:57.656Z,1.5
2018-03-24T07:10:00.033Z,1.5
2018-03-24T07:11:02.717Z,1.4
2018-03-24T07:12:05.094Z,1.2
2018-03-24T07:13:07.467Z,1.2
2018-03-24T07:14:09.848Z,1.2
2018-03-24T07:15:12.217Z,1.2
2018-03-24T07:16:14.604Z,1.6
2018-03-24T07:17:16.980Z,1.5
2018-03-24T07:18:19.348Z,1.2
2018-03-24T07:19:21.732Z,1.2
2018-03-24T07:20:24.119Z,1.2
2018-03-24T07:21:26.488Z,1.2
2018-03-24T07:22:28.861Z,1.5
2018-03-24T07:23:31.230Z,1.4
2018-03-24T07:24:33.887Z,1.5
2018-03-24T07:25:36.849Z,1.9
2018-03-24T07:26:39.233Z,1.4
2018-03-24T07:27:41.603Z,1.3
2018-03-24T07:28:43.972Z,1.2
2018-03-24T07:29:46.360Z,1.2
2018-03-24T07:30:48.724Z,1.3
2018-03-24T07:31:51.096Z,1.5
2018-03-24T07:32:53.477Z,1.6
2018-03-24T07:33:55.848Z,1.5
2018-03-24T07:34:58.223Z,1.5
2018-03-24T07:36:00.898Z,1.3
2018-03-24T07:37:03.273Z,1.2
2018-03-24T07:38:05.652Z,1.2
2018-03-24T07:39:08.320Z,1.6
2018-03-24T07:40:10.688Z,1.4
2018-03-24T07:41:13.341Z,1.3
2018-03-24T07:42:15.716Z,1.4
2018-03-24T07:43:18.091Z,1.4
2018-03-24T07:44:20.473Z,1.2
2018-03-24T07:45:22.834Z,1.2
2018-03-24T07:46:25.210Z,1.2
2018-03-24T07:47:27.596Z,1.5
2018-03-24T07:48:29.972Z,1.5
2018-03-24T07:49:32.625Z,1.5
2018-03-24T07:50:35.285Z,1.7
2018-03-24T07:51:37.660Z,1.5
2018-03-24T07:52:40.316Z,1.3
2018-03-24T07:53:42.695Z,1.2
2018-03-24T07:54:45.056Z,1.2
2018-03-24T07:55:47.429Z,1.7
2018-03-24T07:56:49.814Z,1.5
2018-03-24T07:57:52.186Z,1.7
2018-03-24T07:58:54.563Z,1.4
2018-03-24T07:59:56.936Z,1.3
2018-03-24T08:00:59.313Z,1.2
2018-03-24T08:02:01.693Z,1.2
2018-03-24T08:03:04.349Z,1.5
2018-03-24T08:04:06.724Z,1.6
2018-03-24T08:05:09.386Z,1.3
2018-03-24T08:06:12.033Z,1.5
2018-03-24T08:07:14.422Z,1.4
2018-03-24T08:08:16.787Z,1.2
2018-03-24T08:09:19.449Z,1.2
2018-03-24T08:10:21.820Z,1.2
2018-03-24T08:11:24.195Z,1.3
2018-03-24T08:12:26.569Z,1.7
2018-03-24T08:13:28.947Z,1.8
2018-03-24T08:14:31.318Z,1.7
2018-03-24T08:15:33.692Z,1.4
2018-03-24T08:16:36.065Z,1.2
2018-03-24T08:17:38.434Z,1.2
2018-03-24T08:18:41.088Z,1.3
2018-03-24T08:19:43.748Z,1.6
2018-03-24T08:20:46.115Z,1.6
2018-03-24T08:21:48.783Z,1.6
2018-03-24T08:22:51.152Z,1.6
2018-03-24T08:23:53.536Z,1.2
2018-03-24T08:24:55.914Z,1.2
2018-03-24T08:25:58.295Z,1.2
2018-03-24T08:27:00.958Z,1.2
2018-03-24T08:28:03.346Z,1.5
2018-03-24T08:29:05.724Z,1.6
2018-03-24T08:30:08.143Z,1.5
2018-03-24T08:31:10.579Z,1.4
2018-03-24T08:32:13.019Z,1.4
2018-03-24T08:33:15.451Z,1.8
2018-03-24T08:34:17.910Z,1.3
2018-03-24T08:35:20.351Z,1.3
2018-03-24T08:36:22.785Z,1.4
2018-03-24T08:37:25.219Z,1.5
2018-03-24T08:38:27.662Z,1.8
2018-03-24T08:39:30.087Z,1.3
2018-03-24T08:40:32.824Z,1.3
2018-03-24T08:41:35.252Z,1.2
2018-03-24T08:42:37.978Z,1.2
2018-03-24T08:43:40.412Z,1.7
2018-03-24T08:44:42.867Z,1.7
2018-03-24T08:45:46.157Z,1.7
2018-03-24T08:46:48.599Z,1.9
2018-03-24T08:47:51.025Z,1.8
2018-03-24T08:48:53.486Z,1.6
2018-03-24T08:49:55.921Z,1.4
2018-03-24T08:50:58.348Z,1.3
2018-03-24T08:52:00.816Z,1.3
2018-03-24T08:53:03.252Z,1.3
2018-03-24T08:54:05.674Z,1.3
2018-03-24T08:55:08.446Z,1.6
2018-03-24T08:56:10.876Z,2
2018-03-24T08:57:13.337Z,1.7
2018-03-24T08:58:15.771Z,1.7
2018-03-24T08:59:18.197Z,1.6
2018-03-24T09:00:20.627Z,1.3
2018-03-24T09:01:23.059Z,2
2018-03-24T09:02:25.551Z,1.3
2018-03-24T09:03:28.661Z,1.5
2018-03-24T09:04:31.424Z,1.9
2018-03-24T09:05:33.840Z,1.9
2018-03-24T09:06:36.626Z,1.7
2018-03-24T09:07:39.049Z,1.8
2018-03-24T09:08:41.480Z,1.5
2018-03-24T09:09:43.911Z,1.6
2018-03-24T09:10:46.624Z,1.3
2018-03-24T09:11:49.057Z,1.3
2018-03-24T09:12:51.505Z,1.3
2018-03-24T09:13:53.938Z,1.4
2018-03-24T09:14:56.656Z,1.7
2018-03-24T09:15:59.084Z,1.9
2018-03-24T09:17:01.522Z,1.7
2018-03-24T09:18:03.952Z,1.6
2018-03-24T09:19:06.746Z,1.6
2018-03-24T09:20:09.172Z,1.4
2018-03-24T09:21:11.646Z,1.4
2018-03-24T09:22:14.402Z,1.3
2018-03-24T09:23:16.821Z,1.4
2018-03-24T09:24:19.529Z,1.4
2018-03-24T09:25:21.960Z,1.8
2018-03-24T09:26:24.867Z,2.1
2018-03-24T09:27:27.600Z,1.7
2018-03-24T09:28:30.034Z,1.8
2018-03-24T09:29:32.473Z,1.6
2018-03-24T09:30:34.977Z,1.5
2018-03-24T09:31:37.397Z,1.4
2018-03-24T09:32:39.835Z,1.4
2018-03-24T09:33:42.271Z,1.4
2018-03-24T09:34:44.843Z,1.6
2018-03-24T09:35:47.277Z,1.7
2018-03-24T09:36:49.705Z,1.7
2018-03-24T09:37:52.425Z,1.4
2018-03-24T09:38:54.870Z,1.6
2018-03-24T09:39:57.905Z,1.4
2018-03-24T09:41:00.645Z,1.4
2018-03-24T09:42:03.088Z,1.4
2018-03-24T09:43:05.799Z,1.4
2018-03-24T09:44:08.319Z,1.4
2018-03-24T09:45:10.753Z,1.4
2018-03-24T09:46:13.188Z,1.7
2018-03-24T09:47:16.220Z,2
2018-03-24T09:48:18.654Z,2
2018-03-24T09:49:21.111Z,1.6
2018-03-24T09:50:23.579Z,1.7
2018-03-24T09:51:26.014Z,1.6
2018-03-24T09:52:28.725Z,1.4
2018-03-24T09:53:31.166Z,1.8
2018-03-24T09:54:33.706Z,1.9
2018-03-24T09:55:36.134Z,2
2018-03-24T09:56:38.859Z,1.7
2018-03-24T09:57:41.300Z,2
2018-03-24T09:58:43.736Z,1.9
2018-03-24T09:59:46.175Z,1.5
2018-03-24T10:00:48.615Z,1.5
2018-03-24T10:01:51.340Z,1.5
2018-03-24T10:02:53.764Z,2
2018-03-24T10:03:56.197Z,2.1
2018-03-24T10:04:58.641Z,2.1
2018-03-24T10:06:01.073Z,1.6
2018-03-24T10:07:03.811Z,1.6
2018-03-24T10:08:06.248Z,1.7
2018-03-24T10:09:08.679Z,1.6
2018-03-24T10:10:11.121Z,1.9
2018-03-24T10:11:13.558Z,2
2018-03-24T10:12:15.982Z,2.1
2018-03-24T10:13:19.003Z,1.9
2018-03-24T10:14:21.451Z,2.1
2018-03-24T10:15:23.887Z,1.6
2018-03-24T10:16:26.364Z,2
2018-03-24T10:17:29.082Z,1.6
2018-03-24T10:18:31.521Z,1.6
2018-03-24T10:19:34.113Z,1.7
2018-03-24T10:20:36.827Z,2.3
2018-03-24T10:21:39.255Z,2
2018-03-24T10:22:41.791Z,1.9
2018-03-24T10:23:44.233Z,2.1
2018-03-24T10:24:47.619Z,1.9
2018-03-24T10:25:50.263Z,1.5
2018-03-24T10:26:52.978Z,1.6
2018-03-24T10:27:55.568Z,1.9
2018-03-24T10:28:58.010Z,1.7
2018-03-24T10:30:01.125Z,1.6
2018-03-24T10:31:03.866Z,1.6
2018-03-24T10:32:06.308Z,2.1
2018-03-24T10:33:08.755Z,1.7
2018-03-24T10:34:11.184Z,2
2018-03-24T10:35:13.631Z,2.1
2018-03-24T10:36:16.058Z,1.9
2018-03-24T10:37:18.500Z,1.8
2018-03-24T10:38:21.338Z,1.7
2018-03-24T10:39:23.777Z,1.6
2018-03-24T10:40:26.506Z,1.9
2018-03-24T10:41:28.981Z,2.1
2018-03-24T10:42:31.374Z,2.1
2018-03-24T10:43:33.823Z,2
2018-03-24T10:44:36.253Z,1.9
2018-03-24T10:45:38.743Z,2.1
2018-03-24T10:46:41.474Z,1.6
2018-03-24T10:47:43.910Z,1.7
2018-03-24T10:48:46.340Z,1.6
2018-03-24T10:49:48.783Z,2.1
2018-03-24T10:50:51.210Z,2
2018-03-24T10:51:53.946Z,2.1
2018-03-24T10:52:56.486Z,1.8
2018-03-24T10:53:58.924Z,1.7
2018-03-24T10:55:01.358Z,1.6
2018-03-24T10:56:04.140Z,2
2018-03-24T10:57:06.623Z,2.1
2018-03-24T10:58:09.178Z,2
2018-03-24T10:59:11.701Z,2.1
2018-03-24T11:00:14.180Z,2
2018-03-24T11:01:16.619Z,1.9
2018-03-24T11:02:19.047Z,1.8
2018-03-24T11:03:21.490Z,1.6
2018-03-24T11:04:23.934Z,2.1
2018-03-24T11:05:26.374Z,2.1
2018-03-24T11:06:28.822Z,2
2018-03-24T11:07:31.257Z,1.7
2018-03-24T11:08:33.691Z,1.8
2018-03-24T11:09:36.147Z,1.6
2018-03-24T11:10:39.080Z,1.6
2018-03-24T11:11:41.513Z,1.9
2018-03-24T11:12:43.946Z,2.3
2018-03-24T11:13:46.381Z,2.1
2018-03-24T11:14:49.140Z,2
2018-03-24T11:15:51.577Z,2
2018-03-24T11:16:54.010Z,1.6
2018-03-24T11:17:56.536Z,1.7
2018-03-24T11:18:58.972Z,2.1
2018-03-24T11:20:01.413Z,2.3
2018-03-24T11:21:03.857Z,2
2018-03-24T11:22:06.574Z,2
2018-03-24T11:23:09.015Z,2
2018-03-24T11:24:11.456Z,1.8
2018-03-24T11:25:13.903Z,1.6
2018-03-24T11:26:16.342Z,2.2
2018-03-24T11:27:18.783Z,2.3
2018-03-24T11:28:21.500Z,1.8
2018-03-24T11:29:24.234Z,1.9
2018-03-24T11:30:26.670Z,1.8
2018-03-24T11:31:29.107Z,1.8
2018-03-24T11:32:31.551Z,1.8
2018-03-24T11:33:33.977Z,2.1
2018-03-24T11:34:36.422Z,2.3
2018-03-24T11:35:39.463Z,2
2018-03-24T11:36:42.479Z,1.9
2018-03-24T11:37:44.921Z,2
2018-03-24T11:38:47.370Z,1.8
2018-03-24T11:39:49.796Z,1.7
2018-03-24T11:40:52.241Z,1.6
2018-03-24T11:41:54.895Z,2
2018-03-24T11:42:57.338Z,2.1
2018-03-24T11:43:59.780Z,2.2
2018-03-24T11:45:02.649Z,1.8
2018-03-24T11:46:05.465Z,1.9
2018-03-24T11:47:08.207Z,1.9
2018-03-24T11:48:10.954Z,2
2018-03-24T11:49:13.393Z,1.8
2018-03-24T11:50:15.830Z,1.7
2018-03-24T11:51:18.264Z,1.7
2018-03-24T11:52:20.694Z,2.2
2018-03-24T11:53:23.133Z,2.1
2018-03-24T11:54:25.573Z,2
2018-03-24T11:55:28.020Z,1.8
2018-03-24T11:56:30.741Z,1.7
2018-03-24T11:57:33.178Z,1.8
2018-03-24T11:58:35.894Z,2.2
2018-03-24T11:59:38.626Z,2.3
2018-03-24T12:00:41.279Z,2.2
2018-03-24T12:01:43.712Z,2
2018-03-24T12:02:46.151Z,1.9
2018-03-24T12:03:48.588Z,1.9
2018-03-24T12:04:51.088Z,1.9
2018-03-24T12:05:53.566Z,1.8
2018-03-24T12:06:56.300Z,2
2018-03-24T12:07:59.019Z,2.2
2018-03-24T12:09:01.488Z,2.3
2018-03-24T12:10:03.924Z,1.9
2018-03-24T12:11:06.655Z,2.2
2018-03-24T12:12:09.367Z,1.9
2018-03-24T12:13:12.122Z,1.9
2018-03-24T12:14:14.561Z,1.8
2018-03-24T12:15:17.361Z,1.9
2018-03-24T12:16:19.818Z,2.2
2018-03-24T12:17:22.263Z,2.1
2018-03-24T12:18:24.704Z,2.1
2018-03-24T12:19:27.146Z,2
2018-03-24T12:20:29.687Z,1.9
2018-03-24T12:21:32.130Z,1.9
2018-03-24T12:22:34.859Z,1.9
2018-03-24T12:23:37.377Z,2.4
2018-03-24T12:24:40.102Z,2.2
2018-03-24T12:25:42.543Z,2.3
2018-03-24T12:26:45.067Z,2.2
2018-03-24T12:27:47.510Z,2.3
2018-03-24T12:28:49.952Z,1.8
2018-03-24T12:29:52.606Z,2
2018-03-24T12:30:55.044Z,2.4
2018-03-24T12:31:57.495Z,2.2
2018-03-24T12:33:00.042Z,2
2018-03-24T12:34:02.806Z,2.2
2018-03-24T12:35:05.244Z,2.1
2018-03-24T12:36:07.686Z,2
2018-03-24T12:37:10.422Z,1.9
2018-03-24T12:38:13.735Z,2.5
2018-03-24T12:39:16.167Z,2.6
2018-03-24T12:40:18.697Z,2.4
2018-03-24T12:41:21.420Z,2.4
2018-03-24T12:42:23.872Z,2.5
2018-03-24T12:43:26.309Z,2.1
2018-03-24T12:44:28.754Z,2.1
2018-03-24T12:45:31.485Z,2.1
2018-03-24T12:46:33.928Z,1.9
2018-03-24T12:47:36.363Z,2.2
2018-03-24T12:48:39.263Z,2.5
2018-03-24T12:49:41.989Z,2.5
2018-03-24T12:50:44.442Z,2.5
2018-03-24T12:51:46.887Z,2.3
2018-03-24T12:52:49.348Z,2.2
2018-03-24T12:53:51.788Z,2.2
2018-03-24T12:54:54.237Z,2.2
2018-03-24T12:55:56.816Z,2.7
2018-03-24T12:56:59.248Z,2.5
2018-03-24T12:58:01.692Z,2.5
2018-03-24T12:59:04.247Z,2.4
2018-03-24T13:00:06.680Z,2.3
2018-03-24T13:01:09.125Z,2.1
2018-03-24T13:02:12.012Z,2.8
2018-03-24T13:03:14.450Z,2.3
2018-03-24T13:04:17.195Z,2.6
2018-03-24T13:05:19.672Z,2.5
2018-03-24T13:06:22.105Z,2.3
2018-03-24T13:07:25.462Z,2.2
2018-03-24T13:08:27.925Z,2.3
2018-03-24T13:09:30.359Z,2.3
2018-03-24T13:10:32.808Z,2.6
2018-03-24T13:11:35.582Z,2.6
2018-03-24T13:12:38.024Z,2.7
2018-03-24T13:13:40.472Z,2.4
2018-03-24T13:14:43.007Z,2.1
2018-03-24T13:15:45.449Z,2.3
2018-03-24T13:16:47.892Z,2.1
2018-03-24T13:17:50.341Z,2.6
2018-03-24T13:18:53.089Z,2.3
2018-03-24T13:19:55.544Z,2.6
2018-03-24T13:20:57.975Z,2.2
2018-03-24T13:22:00.426Z,2.5
2018-03-24T13:23:02.875Z,2.3
2018-03-24T13:24:05.314Z,2.2
2018-03-24T13:25:07.761Z,2.2
2018-03-24T13:26:10.201Z,2.8
2018-03-24T13:27:12.657Z,2.5
2018-03-24T13:28:15.690Z,2.4
2018-03-24T13:29:18.227Z,2.4
2018-03-24T13:30:20.668Z,2.4
2018-03-24T13:31:23.112Z,2.3
2018-03-24T13:32:25.582Z,2.7
2018-03-24T13:33:28.594Z,2.3
2018-03-24T13:34:31.033Z,2.5
2018-03-24T13:35:33.681Z,2.3
2018-03-24T13:36:36.122Z,2.3
2018-03-24T13:37:38.573Z,2.2
2018-03-24T13:38:41.090Z,2.5
2018-03-24T13:39:43.534Z,2.8
2018-03-24T13:40:45.974Z,2.5
2018-03-24T13:41:48.485Z,2.7
2018-03-24T13:42:50.927Z,2.5
2018-03-24T13:43:53.376Z,2.5
2018-03-24T13:44:56.167Z,2.5
2018-03-24T13:45:58.912Z,3
2018-03-24T13:47:01.367Z,2.8
2018-03-24T13:48:03.857Z,2.9
2018-03-24T13:49:06.302Z,2.7
2018-03-24T13:50:08.744Z,2.6
2018-03-24T13:51:11.244Z,2.6
2018-03-24T13:52:13.988Z,2.6
2018-03-24T13:53:16.429Z,2.9
2018-03-24T13:54:19.266Z,2.6
2018-03-24T13:55:21.718Z,2.8
2018-03-24T13:56:24.815Z,2.5
2018-03-24T13:57:27.274Z,2.5
2018-03-24T13:58:29.719Z,2.3
2018-03-24T13:59:32.477Z,2.5
2018-03-24T14:00:34.982Z,2.3
2018-03-24T14:01:37.724Z,2.9
2018-03-24T14:02:40.169Z,2.9
2018-03-24T14:03:42.748Z,2.8
2018-03-24T14:04:45.452Z,2.3
2018-03-24T14:05:47.903Z,2.4
2018-03-24T14:06:50.351Z,2.5
2018-03-24T14:07:52.796Z,2.5
2018-03-24T14:08:55.243Z,2.8
2018-03-24T14:09:57.687Z,2.8
2018-03-24T14:11:00.133Z,2.5
2018-03-24T14:12:02.576Z,2.5
2018-03-24T14:13:05.016Z,2.3
2018-03-24T14:14:07.467Z,2.5
2018-03-24T14:15:09.916Z,2.8
2018-03-24T14:16:12.357Z,2.7
2018-03-24T14:17:15.093Z,2.5
2018-03-24T14:18:17.539Z,2.4
2018-03-24T14:19:19.982Z,2.2
2018-03-24T14:20:22.433Z,2.4
2018-03-24T14:21:24.877Z,2.7
2018-03-24T14:22:27.319Z,2.6